sensor_id;sensor_type;location;lat;lon;timestamp;P1;durP1;ratioP1;P2;durP2;ratioP2
52858;SDS011;38721;53.098;6.596;2022-12-07T00:01:49;9.57;;;1.50;;
52858;SDS011;38721;53.098;6.596;2022-12-07T00:04:18;10.88;;;1.88;;
52858;SDS011;38721;53.098;6.596;2022-12-07T00:06:45;7.50;;;1.45;;
52858;SDS011;38721;53.098;6.596;2022-12-07T00:09:16;5.22;;;1.33;;
52858;SDS011;38721;53.098;6.596;2022-12-07T00:11:42;10.05;;;1.30;;
52858;SDS011;38721;53.098;6.596;2022-12-07T00:14:12;4.75;;;1.08;;
52858;SDS011;38721;53.098;6.596;2022-12-07T00:16:40;6.22;;;1.35;;
52858;SDS011;38721;53.098;6.596;2022-12-07T00:19:09;7.65;;;1.30;;
52858;SDS011;38721;53.098;6.596;2022-12-07T00:21:36;4.28;;;0.98;;
52858;SDS011;38721;53.098;6.596;2022-12-07T00:24:03;4.70;;;1.13;;
52858;SDS011;38721;53.098;6.596;2022-12-07T00:26:31;6.43;;;1.10;;
52858;SDS011;38721;53.098;6.596;2022-12-07T00:29:00;7.45;;;1.45;;
52858;SDS011;38721;53.098;6.596;2022-12-07T00:31:32;4.70;;;1.52;;
52858;SDS011;38721;53.098;6.596;2022-12-07T00:34:03;3.60;;;1.13;;
52858;SDS011;38721;53.098;6.596;2022-12-07T00:36:30;5.60;;;1.10;;
52858;SDS011;38721;53.098;6.596;2022-12-07T00:39:00;11.13;;;2.05;;
52858;SDS011;38721;53.098;6.596;2022-12-07T00:41:27;6.47;;;1.25;;
52858;SDS011;38721;53.098;6.596;2022-12-07T00:43:53;5.38;;;1.13;;
52858;SDS011;38721;53.098;6.596;2022-12-07T00:46:19;9.00;;;1.73;;
52858;SDS011;38721;53.098;6.596;2022-12-07T00:48:49;8.77;;;1.52;;
52858;SDS011;38721;53.098;6.596;2022-12-07T00:51:17;5.95;;;1.27;;
52858;SDS011;38721;53.098;6.596;2022-12-07T00:53:44;10.27;;;1.48;;
52858;SDS011;38721;53.098;6.596;2022-12-07T00:56:14;8.95;;;1.30;;
52858;SDS011;38721;53.098;6.596;2022-12-07T00:58:42;5.65;;;1.05;;
52858;SDS011;38721;53.098;6.596;2022-12-07T01:01:09;6.93;;;1.50;;
52858;SDS011;38721;53.098;6.596;2022-12-07T01:03:36;3.60;;;1.00;;
52858;SDS011;38721;53.098;6.596;2022-12-07T01:06:03;5.50;;;1.35;;
52858;SDS011;38721;53.098;6.596;2022-12-07T01:08:29;7.53;;;1.20;;
52858;SDS011;38721;53.098;6.596;2022-12-07T01:11:02;5.60;;;1.63;;
52858;SDS011;38721;53.098;6.596;2022-12-07T01:13:31;12.05;;;1.20;;
52858;SDS011;38721;53.098;6.596;2022-12-07T01:15:58;4.63;;;1.08;;
52858;SDS011;38721;53.098;6.596;2022-12-07T01:18:30;4.15;;;1.00;;
52858;SDS011;38721;53.098;6.596;2022-12-07T01:21:13;6.45;;;0.77;;
52858;SDS011;38721;53.098;6.596;2022-12-07T01:23:41;7.28;;;0.93;;
52858;SDS011;38721;53.098;6.596;2022-12-07T01:26:12;7.63;;;0.90;;
52858;SDS011;38721;53.098;6.596;2022-12-07T01:28:40;9.05;;;1.35;;
52858;SDS011;38721;53.098;6.596;2022-12-07T01:31:07;2.65;;;0.80;;
52858;SDS011;38721;53.098;6.596;2022-12-07T01:33:45;6.65;;;1.15;;
52858;SDS011;38721;53.098;6.596;2022-12-07T01:36:15;3.05;;;0.80;;
52858;SDS011;38721;53.098;6.596;2022-12-07T01:38:41;9.05;;;1.40;;
52858;SDS011;38721;53.098;6.596;2022-12-07T01:41:08;4.60;;;0.80;;
52858;SDS011;38721;53.098;6.596;2022-12-07T01:43:35;6.40;;;0.90;;
52858;SDS011;38721;53.098;6.596;2022-12-07T01:46:03;3.88;;;0.75;;
52858;SDS011;38721;53.098;6.596;2022-12-07T01:51:08;4.72;;;0.88;;
52858;SDS011;38721;53.098;6.596;2022-12-07T01:53:39;4.55;;;0.80;;
52858;SDS011;38721;53.098;6.596;2022-12-07T01:59:31;2.53;;;0.65;;
52858;SDS011;38721;53.098;6.596;2022-12-07T02:01:57;4.22;;;0.80;;
52858;SDS011;38721;53.098;6.596;2022-12-07T02:04:23;5.10;;;0.75;;
52858;SDS011;38721;53.098;6.596;2022-12-07T02:06:49;4.45;;;0.63;;
52858;SDS011;38721;53.098;6.596;2022-12-07T02:09:16;4.03;;;0.90;;
52858;SDS011;38721;53.098;6.596;2022-12-07T02:11:46;8.00;;;1.45;;
52858;SDS011;38721;53.098;6.596;2022-12-07T02:14:12;7.38;;;1.10;;
52858;SDS011;38721;53.098;6.596;2022-12-07T02:27:46;5.68;;;1.30;;
52858;SDS011;38721;53.098;6.596;2022-12-07T02:30:18;8.00;;;1.42;;
52858;SDS011;38721;53.098;6.596;2022-12-07T02:33:08;5.93;;;1.25;;
52858;SDS011;38721;53.098;6.596;2022-12-07T02:40:54;7.90;;;1.08;;
52858;SDS011;38721;53.098;6.596;2022-12-07T02:44:17;2.78;;;1.35;;
52858;SDS011;38721;53.098;6.596;2022-12-07T02:46:43;12.23;;;1.88;;
52858;SDS011;38721;53.098;6.596;2022-12-07T02:49:13;5.82;;;1.02;;
52858;SDS011;38721;53.098;6.596;2022-12-07T02:51:44;5.10;;;0.90;;
52858;SDS011;38721;53.098;6.596;2022-12-07T02:54:11;2.63;;;0.98;;
52858;SDS011;38721;53.098;6.596;2022-12-07T02:56:41;4.47;;;0.95;;
52858;SDS011;38721;53.098;6.596;2022-12-07T03:02:12;2.97;;;0.63;;
52858;SDS011;38721;53.098;6.596;2022-12-07T03:07:42;4.82;;;0.82;;
52858;SDS011;38721;53.098;6.596;2022-12-07T03:13:05;4.78;;;1.00;;
52858;SDS011;38721;53.098;6.596;2022-12-07T03:15:54;3.28;;;0.73;;
52858;SDS011;38721;53.098;6.596;2022-12-07T03:18:28;6.03;;;0.70;;
52858;SDS011;38721;53.098;6.596;2022-12-07T03:21:05;5.40;;;0.98;;
52858;SDS011;38721;53.098;6.596;2022-12-07T03:23:35;5.88;;;0.70;;
52858;SDS011;38721;53.098;6.596;2022-12-07T03:26:03;4.03;;;0.85;;
52858;SDS011;38721;53.098;6.596;2022-12-07T03:28:35;5.97;;;1.00;;
52858;SDS011;38721;53.098;6.596;2022-12-07T03:31:07;2.05;;;0.60;;
52858;SDS011;38721;53.098;6.596;2022-12-07T03:33:50;2.63;;;0.80;;
52858;SDS011;38721;53.098;6.596;2022-12-07T03:36:40;6.75;;;0.98;;
52858;SDS011;38721;53.098;6.596;2022-12-07T03:41:58;5.35;;;1.10;;
52858;SDS011;38721;53.098;6.596;2022-12-07T03:44:26;5.13;;;1.05;;
52858;SDS011;38721;53.098;6.596;2022-12-07T03:52:30;5.80;;;1.33;;
52858;SDS011;38721;53.098;6.596;2022-12-07T03:57:46;6.03;;;1.48;;
52858;SDS011;38721;53.098;6.596;2022-12-07T04:00:15;4.18;;;0.95;;
52858;SDS011;38721;53.098;6.596;2022-12-07T04:02:41;5.88;;;1.70;;
52858;SDS011;38721;53.098;6.596;2022-12-07T04:05:07;5.70;;;1.20;;
52858;SDS011;38721;53.098;6.596;2022-12-07T04:07:33;2.22;;;0.70;;
52858;SDS011;38721;53.098;6.596;2022-12-07T04:09:59;4.55;;;1.05;;
52858;SDS011;38721;53.098;6.596;2022-12-07T04:12:25;8.05;;;1.10;;
52858;SDS011;38721;53.098;6.596;2022-12-07T04:14:50;9.57;;;1.33;;
52858;SDS011;38721;53.098;6.596;2022-12-07T04:17:16;6.10;;;1.10;;
52858;SDS011;38721;53.098;6.596;2022-12-07T04:19:42;13.88;;;1.20;;
52858;SDS011;38721;53.098;6.596;2022-12-07T04:22:10;6.32;;;1.35;;
52858;SDS011;38721;53.098;6.596;2022-12-07T04:24:36;5.22;;;1.10;;
52858;SDS011;38721;53.098;6.596;2022-12-07T04:27:02;2.03;;;0.80;;
52858;SDS011;38721;53.098;6.596;2022-12-07T04:29:28;3.58;;;0.88;;
52858;SDS011;38721;53.098;6.596;2022-12-07T04:31:54;4.47;;;0.90;;
52858;SDS011;38721;53.098;6.596;2022-12-07T04:34:19;8.20;;;1.00;;
52858;SDS011;38721;53.098;6.596;2022-12-07T04:36:46;5.35;;;1.20;;
52858;SDS011;38721;53.098;6.596;2022-12-07T04:42:10;8.23;;;1.17;;
52858;SDS011;38721;53.098;6.596;2022-12-07T04:44:37;3.03;;;0.82;;
52858;SDS011;38721;53.098;6.596;2022-12-07T04:47:03;2.70;;;0.80;;
52858;SDS011;38721;53.098;6.596;2022-12-07T04:49:29;9.07;;;1.08;;
52858;SDS011;38721;53.098;6.596;2022-12-07T04:51:55;9.55;;;1.20;;
52858;SDS011;38721;53.098;6.596;2022-12-07T04:54:20;7.43;;;1.02;;
52858;SDS011;38721;53.098;6.596;2022-12-07T04:56:46;9.73;;;1.35;;
52858;SDS011;38721;53.098;6.596;2022-12-07T04:59:15;4.78;;;0.98;;
52858;SDS011;38721;53.098;6.596;2022-12-07T05:01:42;5.80;;;1.17;;
52858;SDS011;38721;53.098;6.596;2022-12-07T05:04:08;12.30;;;1.10;;
52858;SDS011;38721;53.098;6.596;2022-12-07T05:06:34;5.38;;;1.17;;
52858;SDS011;38721;53.098;6.596;2022-12-07T05:09:00;6.10;;;0.77;;
52858;SDS011;38721;53.098;6.596;2022-12-07T05:11:29;5.90;;;0.82;;
52858;SDS011;38721;53.098;6.596;2022-12-07T05:14:15;6.70;;;0.98;;
52858;SDS011;38721;53.098;6.596;2022-12-07T05:16:45;4.82;;;0.95;;
52858;SDS011;38721;53.098;6.596;2022-12-07T05:19:13;7.80;;;1.05;;
52858;SDS011;38721;53.098;6.596;2022-12-07T05:21:39;7.05;;;1.55;;
52858;SDS011;38721;53.098;6.596;2022-12-07T05:24:06;4.45;;;0.95;;
52858;SDS011;38721;53.098;6.596;2022-12-07T05:26:33;5.53;;;0.98;;
52858;SDS011;38721;53.098;6.596;2022-12-07T05:28:59;7.78;;;1.00;;
52858;SDS011;38721;53.098;6.596;2022-12-07T05:31:26;9.13;;;1.30;;
52858;SDS011;38721;53.098;6.596;2022-12-07T05:33:56;7.85;;;1.23;;
52858;SDS011;38721;53.098;6.596;2022-12-07T05:36:22;7.32;;;0.82;;
52858;SDS011;38721;53.098;6.596;2022-12-07T05:38:48;5.25;;;0.95;;
52858;SDS011;38721;53.098;6.596;2022-12-07T05:41:14;5.40;;;1.10;;
52858;SDS011;38721;53.098;6.596;2022-12-07T05:44:00;9.07;;;0.95;;
52858;SDS011;38721;53.098;6.596;2022-12-07T05:46:26;4.10;;;0.90;;
52858;SDS011;38721;53.098;6.596;2022-12-07T05:48:52;6.32;;;0.95;;
52858;SDS011;38721;53.098;6.596;2022-12-07T05:51:17;6.53;;;2.35;;
52858;SDS011;38721;53.098;6.596;2022-12-07T05:53:43;4.30;;;1.00;;
52858;SDS011;38721;53.098;6.596;2022-12-07T05:56:10;2.90;;;0.75;;
52858;SDS011;38721;53.098;6.596;2022-12-07T05:58:35;6.10;;;1.10;;
52858;SDS011;38721;53.098;6.596;2022-12-07T06:01:20;8.35;;;1.02;;
52858;SDS011;38721;53.098;6.596;2022-12-07T06:03:48;6.40;;;1.20;;
52858;SDS011;38721;53.098;6.596;2022-12-07T06:06:14;8.73;;;1.42;;
52858;SDS011;38721;53.098;6.596;2022-12-07T06:08:39;8.43;;;1.38;;
52858;SDS011;38721;53.098;6.596;2022-12-07T06:11:05;10.55;;;1.30;;
52858;SDS011;38721;53.098;6.596;2022-12-07T06:13:49;7.00;;;1.60;;
52858;SDS011;38721;53.098;6.596;2022-12-07T06:16:18;8.98;;;1.27;;
52858;SDS011;38721;53.098;6.596;2022-12-07T06:18:44;6.25;;;1.33;;
52858;SDS011;38721;53.098;6.596;2022-12-07T06:21:09;6.45;;;1.55;;
52858;SDS011;38721;53.098;6.596;2022-12-07T06:23:35;9.65;;;1.95;;
52858;SDS011;38721;53.098;6.596;2022-12-07T06:26:01;11.07;;;1.80;;
52858;SDS011;38721;53.098;6.596;2022-12-07T06:28:26;7.05;;;1.60;;
52858;SDS011;38721;53.098;6.596;2022-12-07T06:31:01;5.90;;;0.95;;
52858;SDS011;38721;53.098;6.596;2022-12-07T06:33:27;4.97;;;1.15;;
52858;SDS011;38721;53.098;6.596;2022-12-07T06:35:54;3.45;;;1.38;;
52858;SDS011;38721;53.098;6.596;2022-12-07T06:38:20;6.97;;;1.30;;
52858;SDS011;38721;53.098;6.596;2022-12-07T06:40:45;7.85;;;1.45;;
52858;SDS011;38721;53.098;6.596;2022-12-07T06:43:14;6.97;;;1.15;;
52858;SDS011;38721;53.098;6.596;2022-12-07T06:45:40;9.02;;;1.33;;
52858;SDS011;38721;53.098;6.596;2022-12-07T06:48:06;6.50;;;1.33;;
52858;SDS011;38721;53.098;6.596;2022-12-07T06:50:32;5.50;;;1.30;;
52858;SDS011;38721;53.098;6.596;2022-12-07T06:53:00;6.30;;;1.50;;
52858;SDS011;38721;53.098;6.596;2022-12-07T06:55:27;7.32;;;1.23;;
52858;SDS011;38721;53.098;6.596;2022-12-07T06:57:53;7.07;;;1.15;;
52858;SDS011;38721;53.098;6.596;2022-12-07T07:00:22;4.85;;;1.10;;
52858;SDS011;38721;53.098;6.596;2022-12-07T07:02:48;7.50;;;1.20;;
52858;SDS011;38721;53.098;6.596;2022-12-07T07:05:13;7.72;;;1.08;;
52858;SDS011;38721;53.098;6.596;2022-12-07T07:07:40;7.97;;;1.33;;
52858;SDS011;38721;53.098;6.596;2022-12-07T07:10:06;5.55;;;1.20;;
52858;SDS011;38721;53.098;6.596;2022-12-07T07:12:32;7.07;;;1.25;;
52858;SDS011;38721;53.098;6.596;2022-12-07T07:14:58;4.30;;;0.90;;
52858;SDS011;38721;53.098;6.596;2022-12-07T07:17:24;7.25;;;1.10;;
52858;SDS011;38721;53.098;6.596;2022-12-07T07:19:52;5.72;;;1.17;;
52858;SDS011;38721;53.098;6.596;2022-12-07T07:22:18;3.42;;;0.85;;
52858;SDS011;38721;53.098;6.596;2022-12-07T07:24:44;6.38;;;1.15;;
52858;SDS011;38721;53.098;6.596;2022-12-07T07:27:10;4.53;;;0.98;;
52858;SDS011;38721;53.098;6.596;2022-12-07T07:29:39;3.47;;;1.00;;
52858;SDS011;38721;53.098;6.596;2022-12-07T07:32:05;7.55;;;1.00;;
52858;SDS011;38721;53.098;6.596;2022-12-07T07:34:30;3.15;;;1.17;;
52858;SDS011;38721;53.098;6.596;2022-12-07T07:36:56;7.35;;;1.33;;
52858;SDS011;38721;53.098;6.596;2022-12-07T07:39:22;6.50;;;1.13;;
52858;SDS011;38721;53.098;6.596;2022-12-07T07:41:48;9.50;;;1.20;;
52858;SDS011;38721;53.098;6.596;2022-12-07T07:44:13;5.38;;;1.30;;
52858;SDS011;38721;53.098;6.596;2022-12-07T07:46:42;4.53;;;1.20;;
52858;SDS011;38721;53.098;6.596;2022-12-07T07:49:09;7.70;;;1.30;;
52858;SDS011;38721;53.098;6.596;2022-12-07T07:51:35;7.10;;;1.00;;
52858;SDS011;38721;53.098;6.596;2022-12-07T07:54:02;5.38;;;1.15;;
52858;SDS011;38721;53.098;6.596;2022-12-07T07:56:28;4.82;;;0.85;;
52858;SDS011;38721;53.098;6.596;2022-12-07T07:58:54;7.50;;;1.08;;
52858;SDS011;38721;53.098;6.596;2022-12-07T08:01:20;6.85;;;1.27;;
52858;SDS011;38721;53.098;6.596;2022-12-07T08:03:46;5.47;;;1.10;;
52858;SDS011;38721;53.098;6.596;2022-12-07T08:06:12;3.10;;;1.20;;
52858;SDS011;38721;53.098;6.596;2022-12-07T08:08:38;4.72;;;0.95;;
52858;SDS011;38721;53.098;6.596;2022-12-07T08:11:05;9.35;;;1.30;;
52858;SDS011;38721;53.098;6.596;2022-12-07T08:13:31;6.30;;;1.10;;
52858;SDS011;38721;53.098;6.596;2022-12-07T08:15:57;9.10;;;1.20;;
52858;SDS011;38721;53.098;6.596;2022-12-07T08:18:24;5.05;;;1.02;;
52858;SDS011;38721;53.098;6.596;2022-12-07T08:26:17;7.75;;;1.55;;
52858;SDS011;38721;53.098;6.596;2022-12-07T08:28:52;3.85;;;0.93;;
52858;SDS011;38721;53.098;6.596;2022-12-07T08:31:18;5.22;;;1.15;;
52858;SDS011;38721;53.098;6.596;2022-12-07T08:33:44;5.50;;;1.55;;
52858;SDS011;38721;53.098;6.596;2022-12-07T08:36:13;9.30;;;1.35;;
52858;SDS011;38721;53.098;6.596;2022-12-07T08:38:40;8.43;;;1.67;;
52858;SDS011;38721;53.098;6.596;2022-12-07T08:41:07;7.05;;;1.40;;
52858;SDS011;38721;53.098;6.596;2022-12-07T08:43:33;6.50;;;1.20;;
52858;SDS011;38721;53.098;6.596;2022-12-07T08:46:05;4.85;;;1.25;;
52858;SDS011;38721;53.098;6.596;2022-12-07T08:48:31;8.15;;;1.25;;
52858;SDS011;38721;53.098;6.596;2022-12-07T08:51:01;7.80;;;1.60;;
52858;SDS011;38721;53.098;6.596;2022-12-07T08:53:27;9.70;;;1.85;;
52858;SDS011;38721;53.098;6.596;2022-12-07T08:55:55;5.15;;;1.50;;
52858;SDS011;38721;53.098;6.596;2022-12-07T08:58:26;8.68;;;1.70;;
52858;SDS011;38721;53.098;6.596;2022-12-07T09:00:52;5.28;;;1.60;;
52858;SDS011;38721;53.098;6.596;2022-12-07T09:03:18;6.57;;;1.58;;
52858;SDS011;38721;53.098;6.596;2022-12-07T09:05:43;5.68;;;1.55;;
52858;SDS011;38721;53.098;6.596;2022-12-07T09:08:09;9.68;;;1.80;;
52858;SDS011;38721;53.098;6.596;2022-12-07T09:10:36;4.97;;;1.55;;
52858;SDS011;38721;53.098;6.596;2022-12-07T09:13:01;9.45;;;1.50;;
52858;SDS011;38721;53.098;6.596;2022-12-07T09:15:28;7.18;;;1.73;;
52858;SDS011;38721;53.098;6.596;2022-12-07T09:17:59;7.18;;;1.95;;
52858;SDS011;38721;53.098;6.596;2022-12-07T09:23:34;7.45;;;1.33;;
52858;SDS011;38721;53.098;6.596;2022-12-07T09:26:01;6.72;;;1.50;;
52858;SDS011;38721;53.098;6.596;2022-12-07T09:28:27;6.55;;;1.73;;
52858;SDS011;38721;53.098;6.596;2022-12-07T09:30:53;14.98;;;1.70;;
52858;SDS011;38721;53.098;6.596;2022-12-07T09:33:19;8.93;;;1.65;;
52858;SDS011;38721;53.098;6.596;2022-12-07T09:35:48;11.38;;;2.05;;
52858;SDS011;38721;53.098;6.596;2022-12-07T09:38:14;7.13;;;1.67;;
52858;SDS011;38721;53.098;6.596;2022-12-07T09:40:44;6.82;;;1.95;;
52858;SDS011;38721;53.098;6.596;2022-12-07T09:43:33;7.35;;;1.83;;
52858;SDS011;38721;53.098;6.596;2022-12-07T09:46:00;12.48;;;1.80;;
52858;SDS011;38721;53.098;6.596;2022-12-07T09:51:09;7.60;;;1.85;;
52858;SDS011;38721;53.098;6.596;2022-12-07T09:53:42;5.57;;;1.40;;
52858;SDS011;38721;53.098;6.596;2022-12-07T09:56:13;6.82;;;1.63;;
52858;SDS011;38721;53.098;6.596;2022-12-07T10:01:16;8.25;;;1.40;;
52858;SDS011;38721;53.098;6.596;2022-12-07T10:03:50;10.13;;;1.42;;
52858;SDS011;38721;53.098;6.596;2022-12-07T10:06:24;6.97;;;1.50;;
52858;SDS011;38721;53.098;6.596;2022-12-07T10:08:50;4.53;;;1.23;;
52858;SDS011;38721;53.098;6.596;2022-12-07T10:11:19;4.10;;;1.15;;
52858;SDS011;38721;53.098;6.596;2022-12-07T10:13:48;7.68;;;1.25;;
52858;SDS011;38721;53.098;6.596;2022-12-07T10:22:58;3.80;;;1.10;;
52858;SDS011;38721;53.098;6.596;2022-12-07T10:25:33;6.20;;;1.13;;
52858;SDS011;38721;53.098;6.596;2022-12-07T10:30:34;7.05;;;1.98;;
52858;SDS011;38721;53.098;6.596;2022-12-07T10:35:56;4.18;;;1.40;;
52858;SDS011;38721;53.098;6.596;2022-12-07T10:38:26;4.32;;;1.17;;
52858;SDS011;38721;53.098;6.596;2022-12-07T10:41:04;7.45;;;1.45;;
52858;SDS011;38721;53.098;6.596;2022-12-07T10:46:32;12.80;;;1.55;;
52858;SDS011;38721;53.098;6.596;2022-12-07T10:51:52;6.40;;;1.38;;
52858;SDS011;38721;53.098;6.596;2022-12-07T10:57:46;5.28;;;1.63;;
52858;SDS011;38721;53.098;6.596;2022-12-07T11:00:24;5.95;;;1.40;;
52858;SDS011;38721;53.098;6.596;2022-12-07T11:26:21;4.05;;;0.90;;
52858;SDS011;38721;53.098;6.596;2022-12-07T11:28:59;3.10;;;0.82;;
52858;SDS011;38721;53.098;6.596;2022-12-07T11:37:08;2.22;;;0.70;;
52858;SDS011;38721;53.098;6.596;2022-12-07T11:39:41;3.95;;;1.02;;
52858;SDS011;38721;53.098;6.596;2022-12-07T11:42:22;6.25;;;0.80;;
52858;SDS011;38721;53.098;6.596;2022-12-07T11:45:04;4.50;;;0.88;;
52858;SDS011;38721;53.098;6.596;2022-12-07T11:51:21;4.00;;;0.73;;
52858;SDS011;38721;53.098;6.596;2022-12-07T11:54:39;1.75;;;0.60;;
52858;SDS011;38721;53.098;6.596;2022-12-07T11:57:25;5.57;;;0.70;;
52858;SDS011;38721;53.098;6.596;2022-12-07T12:00:15;6.70;;;0.70;;
52858;SDS011;38721;53.098;6.596;2022-12-07T12:05:37;1.98;;;0.57;;
52858;SDS011;38721;53.098;6.596;2022-12-07T12:08:11;5.50;;;0.70;;
52858;SDS011;38721;53.098;6.596;2022-12-07T12:24:46;2.72;;;0.70;;
52858;SDS011;38721;53.098;6.596;2022-12-07T12:29:55;3.35;;;0.75;;
52858;SDS011;38721;53.098;6.596;2022-12-07T12:40:59;3.20;;;0.93;;
52858;SDS011;38721;53.098;6.596;2022-12-07T12:43:45;8.32;;;1.33;;
52858;SDS011;38721;53.098;6.596;2022-12-07T12:51:45;9.32;;;1.05;;
52858;SDS011;38721;53.098;6.596;2022-12-07T12:54:31;3.50;;;0.73;;
52858;SDS011;38721;53.098;6.596;2022-12-07T12:57:15;3.80;;;1.00;;
52858;SDS011;38721;53.098;6.596;2022-12-07T12:59:59;5.97;;;1.00;;
52858;SDS011;38721;53.098;6.596;2022-12-07T13:02:35;3.85;;;0.80;;
52858;SDS011;38721;53.098;6.596;2022-12-07T13:15:35;2.08;;;0.40;;
52858;SDS011;38721;53.098;6.596;2022-12-07T13:26:17;4.70;;;0.60;;
52858;SDS011;38721;53.098;6.596;2022-12-07T13:31:34;3.90;;;0.57;;
52858;SDS011;38721;53.098;6.596;2022-12-07T13:37:18;4.22;;;0.80;;
52858;SDS011;38721;53.098;6.596;2022-12-07T13:44:55;2.92;;;0.50;;
52858;SDS011;38721;53.098;6.596;2022-12-07T13:50:23;3.35;;;0.40;;
52858;SDS011;38721;53.098;6.596;2022-12-07T13:52:55;1.75;;;0.63;;
52858;SDS011;38721;53.098;6.596;2022-12-07T13:57:56;1.83;;;0.40;;
52858;SDS011;38721;53.098;6.596;2022-12-07T14:00:26;3.47;;;0.50;;
52858;SDS011;38721;53.098;6.596;2022-12-07T14:02:59;1.33;;;0.60;;
52858;SDS011;38721;53.098;6.596;2022-12-07T14:05:47;2.65;;;0.60;;
52858;SDS011;38721;53.098;6.596;2022-12-07T14:08:42;1.80;;;0.60;;
52858;SDS011;38721;53.098;6.596;2022-12-07T14:11:16;2.83;;;0.60;;
52858;SDS011;38721;53.098;6.596;2022-12-07T14:16:27;2.97;;;0.98;;
52858;SDS011;38721;53.098;6.596;2022-12-07T14:18:57;1.40;;;0.52;;
52858;SDS011;38721;53.098;6.596;2022-12-07T14:21:26;1.77;;;0.60;;
52858;SDS011;38721;53.098;6.596;2022-12-07T14:26:43;2.08;;;0.70;;
52858;SDS011;38721;53.098;6.596;2022-12-07T14:29:28;5.22;;;0.80;;
52858;SDS011;38721;53.098;6.596;2022-12-07T14:32:25;1.33;;;0.60;;
52858;SDS011;38721;53.098;6.596;2022-12-07T14:34:58;5.60;;;0.90;;
52858;SDS011;38721;53.098;6.596;2022-12-07T14:37:28;3.25;;;1.08;;
52858;SDS011;38721;53.098;6.596;2022-12-07T14:39:55;2.22;;;0.90;;
52858;SDS011;38721;53.098;6.596;2022-12-07T14:42:23;3.80;;;0.80;;
52858;SDS011;38721;53.098;6.596;2022-12-07T14:44:54;4.50;;;0.90;;
52858;SDS011;38721;53.098;6.596;2022-12-07T14:47:20;3.85;;;0.80;;
52858;SDS011;38721;53.098;6.596;2022-12-07T14:49:49;2.40;;;0.80;;
52858;SDS011;38721;53.098;6.596;2022-12-07T14:52:17;2.35;;;1.10;;
52858;SDS011;38721;53.098;6.596;2022-12-07T14:54:58;1.77;;;1.00;;
52858;SDS011;38721;53.098;6.596;2022-12-07T14:57:25;3.78;;;1.02;;
52858;SDS011;38721;53.098;6.596;2022-12-07T14:59:52;3.53;;;0.98;;
52858;SDS011;38721;53.098;6.596;2022-12-07T15:02:18;2.33;;;1.23;;
52858;SDS011;38721;53.098;6.596;2022-12-07T15:04:44;4.40;;;1.10;;
52858;SDS011;38721;53.098;6.596;2022-12-07T15:07:13;3.22;;;0.90;;
52858;SDS011;38721;53.098;6.596;2022-12-07T15:09:43;2.25;;;0.65;;
52858;SDS011;38721;53.098;6.596;2022-12-07T15:12:10;5.15;;;0.90;;
52858;SDS011;38721;53.098;6.596;2022-12-07T15:14:36;2.80;;;1.00;;
52858;SDS011;38721;53.098;6.596;2022-12-07T15:17:03;4.63;;;0.80;;
52858;SDS011;38721;53.098;6.596;2022-12-07T15:19:34;4.57;;;1.23;;
52858;SDS011;38721;53.098;6.596;2022-12-07T15:22:00;4.22;;;0.63;;
52858;SDS011;38721;53.098;6.596;2022-12-07T15:24:26;3.40;;;1.00;;
52858;SDS011;38721;53.098;6.596;2022-12-07T15:26:54;3.50;;;0.77;;
52858;SDS011;38721;53.098;6.596;2022-12-07T15:29:22;3.78;;;0.60;;
52858;SDS011;38721;53.098;6.596;2022-12-07T15:31:52;4.00;;;0.75;;
52858;SDS011;38721;53.098;6.596;2022-12-07T15:34:21;3.03;;;0.70;;
52858;SDS011;38721;53.098;6.596;2022-12-07T15:36:50;1.75;;;0.65;;
52858;SDS011;38721;53.098;6.596;2022-12-07T15:39:16;5.57;;;0.88;;
52858;SDS011;38721;53.098;6.596;2022-12-07T15:41:49;3.58;;;0.65;;
52858;SDS011;38721;53.098;6.596;2022-12-07T15:44:22;4.10;;;0.90;;
52858;SDS011;38721;53.098;6.596;2022-12-07T15:47:06;2.42;;;0.70;;
52858;SDS011;38721;53.098;6.596;2022-12-07T15:49:32;3.25;;;0.60;;
52858;SDS011;38721;53.098;6.596;2022-12-07T15:52:02;3.47;;;1.08;;
52858;SDS011;38721;53.098;6.596;2022-12-07T15:54:29;1.90;;;0.80;;
52858;SDS011;38721;53.098;6.596;2022-12-07T15:56:56;3.20;;;0.70;;
52858;SDS011;38721;53.098;6.596;2022-12-07T15:59:22;3.10;;;0.75;;
52858;SDS011;38721;53.098;6.596;2022-12-07T16:01:55;2.00;;;0.85;;
52858;SDS011;38721;53.098;6.596;2022-12-07T16:04:22;5.68;;;1.00;;
52858;SDS011;38721;53.098;6.596;2022-12-07T16:06:48;4.22;;;0.80;;
52858;SDS011;38721;53.098;6.596;2022-12-07T16:09:23;3.25;;;0.80;;
52858;SDS011;38721;53.098;6.596;2022-12-07T16:12:16;6.30;;;0.98;;
52858;SDS011;38721;53.098;6.596;2022-12-07T16:14:42;2.85;;;0.90;;
52858;SDS011;38721;53.098;6.596;2022-12-07T16:17:10;4.03;;;1.02;;
52858;SDS011;38721;53.098;6.596;2022-12-07T16:19:38;3.65;;;1.00;;
52858;SDS011;38721;53.098;6.596;2022-12-07T16:22:04;6.97;;;1.70;;
52858;SDS011;38721;53.098;6.596;2022-12-07T16:24:30;4.13;;;0.98;;
52858;SDS011;38721;53.098;6.596;2022-12-07T16:27:03;3.25;;;1.40;;
52858;SDS011;38721;53.098;6.596;2022-12-07T16:29:30;9.38;;;1.40;;
52858;SDS011;38721;53.098;6.596;2022-12-07T16:31:57;5.13;;;1.40;;
52858;SDS011;38721;53.098;6.596;2022-12-07T16:34:26;5.18;;;1.65;;
52858;SDS011;38721;53.098;6.596;2022-12-07T16:36:58;3.53;;;1.50;;
52858;SDS011;38721;53.098;6.596;2022-12-07T16:39:27;3.53;;;1.67;;
52858;SDS011;38721;53.098;6.596;2022-12-07T16:41:57;4.60;;;1.50;;
52858;SDS011;38721;53.098;6.596;2022-12-07T16:44:23;3.75;;;1.42;;
52858;SDS011;38721;53.098;6.596;2022-12-07T16:46:49;6.55;;;2.03;;
52858;SDS011;38721;53.098;6.596;2022-12-07T16:49:15;3.75;;;1.17;;
52858;SDS011;38721;53.098;6.596;2022-12-07T16:51:41;3.70;;;1.23;;
52858;SDS011;38721;53.098;6.596;2022-12-07T16:54:14;4.13;;;1.23;;
52858;SDS011;38721;53.098;6.596;2022-12-07T16:56:41;7.53;;;1.50;;
52858;SDS011;38721;53.098;6.596;2022-12-07T16:59:07;5.93;;;1.58;;
52858;SDS011;38721;53.098;6.596;2022-12-07T17:01:34;5.95;;;1.50;;
52858;SDS011;38721;53.098;6.596;2022-12-07T17:04:01;2.65;;;1.38;;
52858;SDS011;38721;53.098;6.596;2022-12-07T17:06:29;5.55;;;1.48;;
52858;SDS011;38721;53.098;6.596;2022-12-07T17:08:57;5.95;;;1.40;;
52858;SDS011;38721;53.098;6.596;2022-12-07T17:11:28;2.95;;;1.20;;
52858;SDS011;38721;53.098;6.596;2022-12-07T17:14:00;3.97;;;1.30;;
52858;SDS011;38721;53.098;6.596;2022-12-07T17:16:45;4.53;;;1.17;;
52858;SDS011;38721;53.098;6.596;2022-12-07T17:19:17;3.92;;;1.20;;
52858;SDS011;38721;53.098;6.596;2022-12-07T17:21:46;6.75;;;1.38;;
52858;SDS011;38721;53.098;6.596;2022-12-07T17:24:14;2.20;;;1.33;;
52858;SDS011;38721;53.098;6.596;2022-12-07T17:26:46;3.25;;;1.40;;
52858;SDS011;38721;53.098;6.596;2022-12-07T17:29:15;2.92;;;1.40;;
52858;SDS011;38721;53.098;6.596;2022-12-07T17:31:48;4.65;;;1.83;;
52858;SDS011;38721;53.098;6.596;2022-12-07T17:34:14;6.13;;;2.00;;
52858;SDS011;38721;53.098;6.596;2022-12-07T17:36:41;3.55;;;1.90;;
52858;SDS011;38721;53.098;6.596;2022-12-07T17:39:08;3.85;;;2.00;;
52858;SDS011;38721;53.098;6.596;2022-12-07T17:41:38;5.80;;;2.33;;
52858;SDS011;38721;53.098;6.596;2022-12-07T17:46:52;5.05;;;2.03;;
52858;SDS011;38721;53.098;6.596;2022-12-07T17:49:27;5.53;;;2.10;;
52858;SDS011;38721;53.098;6.596;2022-12-07T17:51:53;4.63;;;2.13;;
52858;SDS011;38721;53.098;6.596;2022-12-07T17:57:04;6.85;;;2.20;;
52858;SDS011;38721;53.098;6.596;2022-12-07T17:59:30;5.43;;;1.90;;
52858;SDS011;38721;53.098;6.596;2022-12-07T18:01:56;5.30;;;1.88;;
52858;SDS011;38721;53.098;6.596;2022-12-07T18:04:25;6.78;;;2.22;;
52858;SDS011;38721;53.098;6.596;2022-12-07T18:06:54;2.63;;;1.80;;
52858;SDS011;38721;53.098;6.596;2022-12-07T18:09:23;7.68;;;1.38;;
52858;SDS011;38721;53.098;6.596;2022-12-07T18:11:48;3.60;;;1.70;;
52858;SDS011;38721;53.098;6.596;2022-12-07T18:14:15;3.90;;;1.40;;
52858;SDS011;38721;53.098;6.596;2022-12-07T18:16:43;2.60;;;1.50;;